Time;durP1;ratioP1;P1;durP2;ratioP2;P2;SDS_P1;SDS_P2;PMS_P1;PMS_P2;Temp;Humidity;BMP_temperature;BMP_pressure;BME280_temperature;BME280_humidity;BME280_pressure;Samples;Min_cycle;Max_cycle;Signal;HPM_P1;HPM_P2
2023/10/27 00:00:31;;;;;;;7.10;1.30;;;9.30;99.90;;;;;;5069982;28;20421;-71
2023/10/27 00:02:57;;;;;;;3.60;1.00;;;9.30;99.90;;;;;;5069962;28;20412;-72
2023/10/27 00:05:23;;;;;;;7.93;0.80;;;9.30;99.90;;;;;;5069931;28;20207;-70
2023/10/27 00:07:48;;;;;;;2.03;0.90;;;9.20;99.90;;;;;;5069876;28;20854;-70
2023/10/27 00:10:14;;;;;;;6.30;1.73;;;9.30;99.90;;;;;;5068312;28;20203;-70
2023/10/27 00:12:39;;;;;;;4.90;0.93;;;9.20;99.90;;;;;;5069635;28;20738;-69
2023/10/27 00:15:06;;;;;;;4.40;0.83;;;9.20;99.90;;;;;;5068212;28;20266;-71
2023/10/27 00:17:32;;;;;;;6.83;1.43;;;9.20;99.90;;;;;;5069438;28;20292;-71
2023/10/27 00:19:58;;;;;;;6.13;0.83;;;9.20;99.90;;;;;;5068047;28;20868;-72
2023/10/27 00:22:25;;;;;;;1.53;0.80;;;9.20;99.90;;;;;;5069481;28;20176;-72
2023/10/27 00:24:53;;;;;;;2.17;1.27;;;9.30;99.90;;;;;;5069469;28;20456;-72
2023/10/27 00:27:20;;;;;;;6.30;1.10;;;9.30;99.90;;;;;;5067631;28;20945;-71
2023/10/27 00:29:46;;;;;;;4.50;0.97;;;9.30;99.90;;;;;;5051552;28;20432;-72
2023/10/27 00:32:11;;;;;;;3.53;1.00;;;9.30;99.90;;;;;;5069210;28;20481;-71
2023/10/27 00:34:37;;;;;;;3.27;0.83;;;9.30;99.90;;;;;;5069193;28;20445;-72
2023/10/27 00:37:03;;;;;;;4.47;1.83;;;9.30;99.90;;;;;;5067681;28;20228;-70
2023/10/27 00:39:29;;;;;;;4.00;0.90;;;9.30;99.90;;;;;;5069534;28;20262;-71
2023/10/27 00:41:55;;;;;;;5.47;1.97;;;9.30;99.90;;;;;;5067640;28;20703;-72
2023/10/27 00:44:20;;;;;;;2.23;0.93;;;9.30;99.90;;;;;;5069493;28;20691;-71
2023/10/27 00:46:46;;;;;;;5.13;1.10;;;9.20;99.90;;;;;;5068993;28;20454;-71
2023/10/27 00:49:12;;;;;;;6.63;1.20;;;9.30;99.90;;;;;;5069031;28;20657;-71
2023/10/27 00:51:38;;;;;;;1.10;0.70;;;9.30;99.90;;;;;;5068785;28;20224;-71
2023/10/27 00:54:08;;;;;;;3.90;1.40;;;9.40;99.90;;;;;;5069245;28;20429;-71
2023/10/27 00:56:35;;;;;;;9.43;1.50;;;9.30;99.90;;;;;;5068797;28;20432;-71
2023/10/27 00:59:01;;;;;;;6.00;1.10;;;9.20;99.90;;;;;;5068984;28;20972;-71
2023/10/27 01:01:27;;;;;;;6.73;1.00;;;9.10;99.90;;;;;;5068851;28;20414;-70
2023/10/27 01:03:55;;;;;;;6.63;1.20;;;9.10;99.90;;;;;;5068308;28;20428;-71
2023/10/27 01:06:22;;;;;;;5.67;1.00;;;9.10;99.90;;;;;;5066899;28;20430;-70
2023/10/27 01:08:48;;;;;;;9.27;1.10;;;9.10;99.90;;;;;;5068791;28;20451;-70
2023/10/27 01:11:14;;;;;;;4.67;1.03;;;9.10;99.90;;;;;;5068716;28;20414;-70
2023/10/27 01:13:39;;;;;;;5.60;1.30;;;9.20;99.90;;;;;;5068835;28;20272;-71
2023/10/27 01:16:05;;;;;;;8.00;2.10;;;9.10;99.90;;;;;;5067052;28;20422;-69
2023/10/27 01:18:31;;;;;;;4.80;0.90;;;9.10;99.90;;;;;;5067390;28;20218;-71
2023/10/27 01:20:56;;;;;;;3.43;1.20;;;9.10;99.90;;;;;;5068714;28;20420;-71
2023/10/27 01:23:22;;;;;;;3.80;0.90;;;9.20;99.90;;;;;;5068687;28;20658;-71
2023/10/27 01:25:48;;;;;;;4.70;0.93;;;9.30;99.90;;;;;;5068376;28;20186;-71
2023/10/27 01:28:13;;;;;;;2.83;1.00;;;9.20;99.90;;;;;;5067875;28;20218;-70
2023/10/27 01:30:39;;;;;;;4.10;1.10;;;9.40;99.90;;;;;;5068041;28;20185;-71
2023/10/27 01:33:04;;;;;;;2.17;0.90;;;9.40;99.90;;;;;;5068489;28;20221;-70
2023/10/27 01:35:30;;;;;;;2.97;0.80;;;9.40;99.90;;;;;;5068591;28;20647;-71
2023/10/27 01:37:55;;;;;;;6.40;1.37;;;9.40;99.90;;;;;;5033248;28;20243;-70
2023/10/27 01:40:21;;;;;;;2.30;1.00;;;9.50;99.90;;;;;;5068093;28;20188;-71
2023/10/27 01:42:47;;;;;;;5.03;1.13;;;9.50;99.90;;;;;;5067938;28;20183;-70
2023/10/27 01:45:13;;;;;;;1.30;0.90;;;9.50;99.90;;;;;;5066719;28;20177;-70
2023/10/27 01:47:39;;;;;;;2.90;0.97;;;9.50;99.90;;;;;;5066414;28;20725;-71
2023/10/27 01:50:06;;;;;;;1.33;0.63;;;9.40;99.90;;;;;;5066590;28;20537;-71
2023/10/27 01:52:32;;;;;;;5.47;0.87;;;9.40;99.90;;;;;;5067948;28;20826;-72
2023/10/27 01:54:57;;;;;;;2.20;0.87;;;9.40;99.90;;;;;;5066364;28;20521;-71
2023/10/27 01:57:24;;;;;;;3.00;0.57;;;9.50;99.90;;;;;;5067860;28;20205;-71
2023/10/27 01:59:50;;;;;;;2.70;0.70;;;9.30;99.90;;;;;;5067990;28;20618;-71
2023/10/27 02:02:16;;;;;;;1.83;0.70;;;9.40;99.90;;;;;;5068126;28;20423;-71
2023/10/27 02:04:42;;;;;;;1.70;0.50;;;9.30;99.90;;;;;;5068075;28;20458;-71
2023/10/27 02:07:08;;;;;;;3.13;0.60;;;9.40;99.90;;;;;;5067316;28;20448;-69
2023/10/27 02:09:33;;;;;;;2.03;0.60;;;9.30;99.90;;;;;;5068816;28;20471;-71
2023/10/27 02:11:59;;;;;;;2.23;0.60;;;9.30;99.90;;;;;;5068911;28;20405;-72
2023/10/27 02:14:25;;;;;;;1.20;0.63;;;9.30;99.90;;;;;;5068945;28;20245;-70
2023/10/27 02:16:51;;;;;;;1.03;0.50;;;9.30;99.90;;;;;;5052747;28;20195;-72
2023/10/27 02:19:17;;;;;;;1.87;0.60;;;9.30;99.90;;;;;;5071117;28;20853;-71
2023/10/27 02:21:42;;;;;;;3.87;1.07;;;9.30;99.90;;;;;;5072358;28;20183;-71
2023/10/27 02:24:08;;;;;;;2.10;0.70;;;9.30;99.90;;;;;;5072187;28;20188;-71
2023/10/27 02:26:35;;;;;;;4.30;0.90;;;9.20;99.90;;;;;;5071996;28;20206;-70
2023/10/27 02:29:01;;;;;;;6.43;0.70;;;9.20;99.90;;;;;;5072198;28;20209;-71
2023/10/27 02:31:26;;;;;;;3.83;0.57;;;9.30;99.90;;;;;;5072058;28;20927;-72
2023/10/27 02:33:52;;;;;;;3.50;1.10;;;9.30;99.90;;;;;;5071649;28;20218;-71
2023/10/27 02:36:18;;;;;;;1.83;0.80;;;9.40;99.90;;;;;;5070406;28;20192;-71
2023/10/27 02:38:43;;;;;;;1.83;0.70;;;9.30;99.90;;;;;;5071490;28;20210;-71
2023/10/27 02:41:10;;;;;;;2.23;0.70;;;9.40;99.90;;;;;;5070360;28;20590;-71
2023/10/27 02:43:37;;;;;;;2.17;0.70;;;9.50;99.90;;;;;;5071576;28;20683;-71
2023/10/27 02:46:04;;;;;;;2.37;0.60;;;9.40;99.90;;;;;;5071520;28;20421;-71
2023/10/27 02:48:30;;;;;;;3.43;0.77;;;9.40;99.90;;;;;;5071121;28;20446;-71
2023/10/27 02:50:56;;;;;;;1.77;0.70;;;9.30;99.90;;;;;;5071269;28;20417;-72
2023/10/27 02:53:21;;;;;;;1.17;0.50;;;9.30;99.90;;;;;;5071011;28;20856;-72
2023/10/27 02:55:47;;;;;;;5.23;0.60;;;9.40;99.90;;;;;;5071138;28;20677;-71
2023/10/27 02:58:12;;;;;;;3.10;0.70;;;9.30;99.90;;;;;;5071113;28;20227;-71
2023/10/27 03:00:42;;;;;;;1.67;0.60;;;9.30;99.90;;;;;;5071221;28;20209;-71
2023/10/27 03:03:07;;;;;;;2.10;0.80;;;9.20;99.90;;;;;;5071252;28;20193;-71
2023/10/27 03:05:33;;;;;;;0.70;0.50;;;9.20;99.90;;;;;;5069589;28;20545;-71
2023/10/27 03:07:58;;;;;;;6.10;0.70;;;9.20;99.90;;;;;;5070915;28;20217;-71
2023/10/27 03:10:24;;;;;;;3.63;0.70;;;9.20;99.90;;;;;;5069517;28;20195;-71
2023/10/27 03:12:50;;;;;;;1.43;0.63;;;9.20;99.90;;;;;;5070757;28;20198;-71
2023/10/27 03:15:15;;;;;;;1.27;0.97;;;9.20;99.90;;;;;;5070955;28;20196;-71
2023/10/27 03:17:41;;;;;;;1.10;0.50;;;9.30;99.90;;;;;;5069297;28;20294;-71
2023/10/27 03:20:07;;;;;;;7.30;1.20;;;9.20;99.90;;;;;;5070791;28;20186;-71
2023/10/27 03:22:33;;;;;;;3.93;0.97;;;9.20;99.90;;;;;;5070670;28;20604;-71
2023/10/27 03:24:59;;;;;;;4.33;1.03;;;9.20;99.90;;;;;;5070754;28;20513;-71
2023/10/27 03:27:25;;;;;;;2.90;0.83;;;9.30;99.90;;;;;;5069893;28;21001;-71
2023/10/27 03:29:51;;;;;;;1.40;0.70;;;9.30;99.90;;;;;;5069211;28;20416;-71
2023/10/27 03:32:17;;;;;;;1.20;0.70;;;9.40;99.90;;;;;;5070498;28;20190;-70
2023/10/27 03:34:43;;;;;;;3.73;0.90;;;9.30;99.90;;;;;;5070537;28;20501;-71
2023/10/27 03:37:09;;;;;;;1.00;0.60;;;9.30;99.90;;;;;;5068827;28;20529;-71
2023/10/27 03:39:35;;;;;;;5.80;0.83;;;9.30;99.90;;;;;;5070652;28;20547;-71
2023/10/27 03:42:01;;;;;;;6.20;1.30;;;9.20;99.90;;;;;;5070246;28;20419;-71
2023/10/27 03:44:26;;;;;;;1.50;0.73;;;9.30;99.90;;;;;;5068953;28;20437;-71
2023/10/27 03:46:52;;;;;;;4.00;0.93;;;9.40;99.90;;;;;;5070044;28;20192;-71
2023/10/27 03:49:18;;;;;;;1.27;0.63;;;9.40;99.90;;;;;;5068702;28;20270;-71
2023/10/27 03:51:43;;;;;;;2.27;0.60;;;9.40;99.90;;;;;;5069983;28;20510;-70
2023/10/27 03:54:09;;;;;;;1.83;1.10;;;9.50;99.90;;;;;;5051870;28;20198;-71
2023/10/27 03:56:35;;;;;;;1.13;0.67;;;9.50;99.90;;;;;;5069965;28;20730;-70
2023/10/27 03:59:00;;;;;;;3.00;0.80;;;9.50;99.90;;;;;;5068269;28;20219;-70
2023/10/27 04:01:29;;;;;;;1.87;0.77;;;9.60;99.90;;;;;;5069633;28;20725;-71
2023/10/27 04:03:55;;;;;;;1.00;0.60;;;9.50;99.90;;;;;;5067214;28;20657;-70
2023/10/27 04:06:21;;;;;;;3.57;0.80;;;9.40;99.90;;;;;;5068456;28;20510;-70
2023/10/27 04:08:47;;;;;;;0.83;0.63;;;9.40;99.90;;;;;;5066797;28;20457;-70
2023/10/27 04:11:13;;;;;;;0.80;0.50;;;9.30;99.90;;;;;;5068671;28;20442;-69
2023/10/27 04:13:39;;;;;;;0.90;0.60;;;9.30;99.90;;;;;;5067412;28;20918;-69
2023/10/27 04:16:04;;;;;;;1.40;0.70;;;9.40;99.90;;;;;;5068951;28;20194;-70
2023/10/27 04:18:30;;;;;;;2.53;1.10;;;9.40;99.90;;;;;;5067324;28;20469;-70
2023/10/27 04:20:56;;;;;;;1.67;0.50;;;9.50;99.90;;;;;;5068992;28;20547;-70
2023/10/27 04:23:22;;;;;;;0.90;0.60;;;9.50;99.90;;;;;;5068833;28;20421;-71
2023/10/27 04:25:48;;;;;;;0.90;0.60;;;9.50;99.90;;;;;;5069066;28;20187;-70
2023/10/27 04:28:14;;;;;;;3.27;0.90;;;9.50;99.90;;;;;;5067649;28;20219;-68
2023/10/27 04:30:39;;;;;;;1.70;1.10;;;9.40;99.90;;;;;;5051145;28;20437;-71
2023/10/27 04:33:05;;;;;;;1.70;0.67;;;9.40;99.90;;;;;;5068840;28;20416;-70
2023/10/27 04:35:32;;;;;;;1.40;0.60;;;9.40;99.90;;;;;;5068604;28;20181;-69
2023/10/27 04:37:58;;;;;;;2.57;0.67;;;9.40;99.90;;;;;;5068400;28;20488;-70
2023/10/27 04:40:25;;;;;;;2.37;0.83;;;9.30;99.90;;;;;;5068558;28;20794;-70
2023/10/27 04:42:51;;;;;;;1.33;0.60;;;9.40;99.90;;;;;;5068500;28;21031;-71
2023/10/27 04:45:16;;;;;;;1.83;0.90;;;9.50;99.90;;;;;;5068455;28;20417;-71
2023/10/27 04:47:43;;;;;;;1.00;0.50;;;9.40;99.90;;;;;;5067349;28;20437;-70
2023/10/27 04:50:09;;;;;;;3.43;1.13;;;9.40;99.90;;;;;;5066898;28;20191;-71
2023/10/27 04:52:35;;;;;;;3.40;1.20;;;9.40;99.90;;;;;;5068567;28;20424;-70
2023/10/27 04:55:01;;;;;;;0.90;0.60;;;9.40;99.90;;;;;;5066996;28;20988;-70
2023/10/27 04:57:26;;;;;;;2.60;0.70;;;9.50;99.90;;;;;;5068070;28;20291;-71
2023/10/27 04:59:52;;;;;;;3.60;0.90;;;9.60;99.90;;;;;;5068266;28;20213;-70
2023/10/27 05:02:17;;;;;;;1.20;0.50;;;9.60;99.90;;;;;;5066727;28;20219;-71
2023/10/27 05:04:43;;;;;;;1.47;0.60;;;9.70;99.90;;;;;;5068112;28;20587;-70
2023/10/27 05:07:10;;;;;;;2.00;0.70;;;9.70;99.90;;;;;;5068273;28;20633;-71
2023/10/27 05:09:36;;;;;;;1.60;0.83;;;9.70;99.90;;;;;;5068291;28;20170;-71
2023/10/27 05:12:02;;;;;;;0.90;0.63;;;9.70;99.90;;;;;;5068394;28;20921;-70
2023/10/27 05:14:28;;;;;;;2.03;0.53;;;9.70;99.90;;;;;;5068386;28;20171;-71
2023/10/27 05:16:54;;;;;;;0.80;0.60;;;9.70;99.90;;;;;;5067118;28;20423;-70
2023/10/27 05:19:20;;;;;;;1.20;0.60;;;9.80;99.90;;;;;;5067845;28;20245;-70
2023/10/27 05:21:46;;;;;;;0.80;0.60;;;9.80;99.90;;;;;;5067888;28;20449;-72
2023/10/27 05:24:11;;;;;;;1.23;0.67;;;9.90;99.90;;;;;;5033298;28;20187;-70
2023/10/27 05:26:37;;;;;;;0.90;0.60;;;9.90;99.90;;;;;;5066659;28;20434;-69
2023/10/27 05:29:02;;;;;;;0.80;0.80;;;9.90;99.90;;;;;;5066343;28;20203;-69
2023/10/27 05:31:28;;;;;;;0.70;0.50;;;10.00;99.90;;;;;;5068216;28;20234;-69
2023/10/27 05:33:54;;;;;;;2.43;0.70;;;10.00;99.90;;;;;;5068628;28;20190;-70
2023/10/27 05:36:20;;;;;;;1.00;0.60;;;10.00;99.90;;;;;;5068361;28;20220;-69
2023/10/27 05:38:46;;;;;;;0.80;0.50;;;10.00;99.90;;;;;;5067134;28;20560;-71
2023/10/27 05:41:11;;;;;;;2.60;1.07;;;10.00;99.90;;;;;;5067538;28;20194;-71
2023/10/27 05:43:37;;;;;;;1.10;0.60;;;10.00;99.90;;;;;;5067546;28;20520;-71
2023/10/27 05:46:03;;;;;;;0.70;0.60;;;10.00;99.90;;;;;;5068909;28;20180;-70
2023/10/27 05:48:28;;;;;;;1.23;0.73;;;10.00;99.90;;;;;;5068723;28;20277;-70
2023/10/27 05:50:54;;;;;;;0.80;0.60;;;10.00;99.90;;;;;;5069551;28;20188;-70
2023/10/27 05:53:20;;;;;;;0.90;0.60;;;10.00;99.90;;;;;;5070911;28;20195;-70
2023/10/27 05:55:45;;;;;;;0.93;0.60;;;9.90;99.90;;;;;;5054369;28;20523;-70
2023/10/27 05:58:11;;;;;;;1.00;0.60;;;9.90;99.90;;;;;;5072091;28;20214;-71
2023/10/27 06:00:37;;;;;;;0.90;0.80;;;10.00;99.90;;;;;;5070997;28;20173;-71
2023/10/27 06:03:03;;;;;;;1.43;1.30;;;10.00;99.90;;;;;;5072295;28;20736;-70
2023/10/27 06:05:29;;;;;;;2.43;1.33;;;10.00;99.90;;;;;;5072331;28;20429;-71
2023/10/27 06:07:54;;;;;;;0.90;0.67;;;10.10;99.90;;;;;;5071941;28;20439;-70
2023/10/27 06:10:20;;;;;;;0.90;0.60;;;10.00;99.90;;;;;;5071939;28;20188;-70
2023/10/27 06:12:46;;;;;;;1.00;0.80;;;10.00;99.90;;;;;;5070438;28;20207;-70
2023/10/27 06:15:12;;;;;;;1.03;0.70;;;10.00;99.90;;;;;;5071318;28;20526;-70
2023/10/27 06:17:37;;;;;;;1.30;0.70;;;10.00;99.90;;;;;;5071030;28;20215;-70
2023/10/27 06:20:03;;;;;;;0.70;0.40;;;10.10;99.90;;;;;;5071214;28;20245;-70
2023/10/27 06:22:32;;;;;;;0.90;0.60;;;10.10;99.90;;;;;;5069716;28;20193;-70
2023/10/27 06:24:58;;;;;;;1.33;0.50;;;10.20;99.90;;;;;;5069861;28;20474;-70
2023/10/27 06:27:23;;;;;;;0.70;0.40;;;10.20;99.90;;;;;;5070698;28;20463;-70
2023/10/27 06:29:49;;;;;;;0.80;0.50;;;10.30;99.90;;;;;;5070961;28;20179;-71
2023/10/27 06:32:16;;;;;;;2.40;0.60;;;10.30;99.90;;;;;;5069554;28;20204;-70
2023/10/27 06:34:42;;;;;;;0.80;0.50;;;10.50;99.90;;;;;;5069241;28;21024;-70
2023/10/27 06:37:07;;;;;;;0.80;0.50;;;10.40;99.90;;;;;;5070582;28;20555;-71
2023/10/27 06:39:33;;;;;;;0.93;0.50;;;10.40;99.90;;;;;;5070607;28;20571;-71
2023/10/27 06:41:59;;;;;;;1.20;0.63;;;10.40;99.90;;;;;;5070403;28;20501;-71
2023/10/27 06:44:25;;;;;;;5.23;0.57;;;10.40;99.90;;;;;;5070208;28;20420;-71
2023/10/27 06:46:51;;;;;;;1.13;0.53;;;10.50;99.90;;;;;;5070309;28;20691;-71
2023/10/27 06:49:17;;;;;;;1.00;0.40;;;10.50;99.90;;;;;;5052452;28;20416;-70
2023/10/27 06:51:42;;;;;;;1.33;0.50;;;10.60;99.90;;;;;;5070043;28;20707;-70
2023/10/27 06:54:10;;;;;;;2.00;0.50;;;10.50;99.90;;;;;;5070049;28;20846;-70
2023/10/27 06:56:35;;;;;;;1.07;0.50;;;10.60;99.90;;;;;;5069804;28;20186;-70
2023/10/27 06:59:01;;;;;;;0.80;0.60;;;10.60;99.90;;;;;;5069655;28;20478;-70
2023/10/27 07:01:27;;;;;;;1.13;0.50;;;10.60;99.90;;;;;;5069289;28;20189;-71
2023/10/27 07:03:52;;;;;;;0.90;0.50;;;10.50;99.90;;;;;;5069867;28;20195;-70
2023/10/27 07:06:18;;;;;;;4.10;0.50;;;10.60;99.90;;;;;;5069762;28;20186;-70
2023/10/27 07:08:44;;;;;;;1.47;0.60;;;10.60;99.90;;;;;;5069785;28;20220;-70
2023/10/27 07:11:10;;;;;;;0.80;0.50;;;10.70;99.90;;;;;;5069698;28;20181;-70
2023/10/27 07:13:36;;;;;;;0.80;0.50;;;10.70;99.90;;;;;;5068458;28;20430;-70
2023/10/27 07:16:02;;;;;;;2.90;0.60;;;10.70;99.90;;;;;;5069394;28;20448;-70
2023/10/27 07:18:28;;;;;;;1.10;0.50;;;10.70;99.90;;;;;;5069569;28;20714;-70
2023/10/27 07:20:56;;;;;;;1.03;0.40;;;10.70;99.90;;;;;;5069434;28;20431;-70
2023/10/27 07:23:22;;;;;;;0.70;0.40;;;10.70;99.90;;;;;;5069682;28;20467;-69
2023/10/27 07:25:48;;;;;;;0.80;0.50;;;10.60;99.90;;;;;;5067756;28;20430;-70
2023/10/27 07:28:13;;;;;;;0.80;0.40;;;10.70;99.90;;;;;;5069114;28;20461;-70
2023/10/27 07:30:39;;;;;;;1.20;0.50;;;10.80;99.90;;;;;;5069374;28;20931;-70
2023/10/27 07:33:05;;;;;;;3.93;0.50;;;10.70;99.90;;;;;;5069137;28;20961;-70
2023/10/27 07:35:31;;;;;;;0.70;0.50;;;10.80;99.90;;;;;;5069058;28;20179;-70
2023/10/27 07:38:00;;;;;;;1.00;0.40;;;10.70;99.90;;;;;;5069001;28;20464;-70
2023/10/27 07:40:26;;;;;;;1.70;0.50;;;10.70;99.90;;;;;;5068922;28;20250;-70
2023/10/27 07:42:51;;;;;;;0.70;0.43;;;10.80;99.90;;;;;;5068783;28;20414;-71
2023/10/27 07:45:17;;;;;;;0.70;0.40;;;10.70;99.90;;;;;;5067392;28;20424;-70
2023/10/27 07:47:43;;;;;;;2.30;0.60;;;10.70;99.90;;;;;;5069001;28;20436;-70
2023/10/27 07:50:10;;;;;;;0.70;0.40;;;10.70;99.90;;;;;;5067471;28;20203;-70
2023/10/27 07:52:37;;;;;;;1.10;0.83;;;10.60;99.90;;;;;;5068850;28;20434;-71
2023/10/27 07:55:03;;;;;;;0.70;0.50;;;10.60;99.90;;;;;;5068833;28;20413;-69
2023/10/27 07:57:29;;;;;;;0.70;0.40;;;10.60;99.90;;;;;;5066821;28;20455;-69
2023/10/27 07:59:55;;;;;;;0.70;0.40;;;10.60;99.90;;;;;;5068570;28;20417;-69
2023/10/27 08:02:20;;;;;;;4.10;0.60;;;10.50;99.90;;;;;;5068561;28;20190;-69
2023/10/27 08:04:46;;;;;;;1.00;0.60;;;10.50;99.90;;;;;;5067008;28;20184;-70
2023/10/27 08:07:12;;;;;;;0.97;0.60;;;10.50;99.90;;;;;;5068677;28;20622;-70
2023/10/27 08:09:38;;;;;;;1.27;0.40;;;10.50;99.90;;;;;;5068596;28;20915;-71
2023/10/27 08:12:05;;;;;;;0.90;0.50;;;10.50;99.90;;;;;;5066856;28;20446;-70
2023/10/27 08:14:33;;;;;;;0.80;0.50;;;10.60;99.90;;;;;;5068347;28;21012;-70
2023/10/27 08:16:58;;;;;;;1.07;0.50;;;10.60;99.90;;;;;;5068096;28;20562;-71
2023/10/27 08:19:24;;;;;;;2.50;0.70;;;10.60;99.90;;;;;;5067977;28;20554;-70
2023/10/27 08:21:50;;;;;;;1.20;0.90;;;10.70;99.90;;;;;;5066831;28;20178;-70
2023/10/27 08:24:16;;;;;;;0.80;0.70;;;10.70;99.90;;;;;;5066726;28;20956;-70
2023/10/27 08:26:43;;;;;;;2.70;0.70;;;10.80;99.90;;;;;;5068099;28;20567;-70
2023/10/27 08:29:09;;;;;;;1.20;0.60;;;11.00;99.90;;;;;;5067793;28;20207;-71
2023/10/27 08:31:34;;;;;;;0.70;0.40;;;11.30;99.90;;;;;;5068156;28;20866;-71
2023/10/27 08:34:01;;;;;;;1.33;0.40;;;11.40;99.90;;;;;;5067797;28;20414;-71
2023/10/27 08:36:27;;;;;;;0.70;0.40;;;12.10;99.90;;;;;;5068017;28;20837;-71
2023/10/27 08:38:56;;;;;;;1.20;0.40;;;12.40;99.90;;;;;;5067744;28;20483;-70
2023/10/27 08:41:24;;;;;;;1.40;0.40;;;12.50;99.90;;;;;;5066659;28;20422;-70
2023/10/27 08:43:50;;;;;;;1.57;0.40;;;12.40;99.90;;;;;;5067857;28;20522;-71
2023/10/27 08:46:16;;;;;;;0.80;0.50;;;12.30;99.90;;;;;;5066460;28;20508;-70
2023/10/27 08:48:42;;;;;;;1.27;0.50;;;12.10;99.90;;;;;;5067462;28;20512;-70
2023/10/27 08:51:09;;;;;;;1.63;0.50;;;12.00;99.90;;;;;;5066071;28;20444;-70
2023/10/27 08:53:40;;;;;;;1.53;0.40;;;11.70;99.90;;;;;;5067708;28;20458;-70
2023/10/27 08:56:12;;;;;;;0.70;0.40;;;11.70;99.90;;;;;;5067621;28;21001;-70
2023/10/27 08:58:47;;;;;;;0.80;0.40;;;11.60;99.90;;;;;;5067339;28;20476;-70
2023/10/27 09:01:13;;;;;;;2.33;0.63;;;11.70;99.90;;;;;;5066476;28;20936;-70
2023/10/27 09:03:39;;;;;;;1.33;0.53;;;11.70;99.90;;;;;;5066175;28;20528;-71
2023/10/27 09:06:05;;;;;;;2.40;0.77;;;11.80;99.90;;;;;;5067562;28;20516;-70
2023/10/27 09:08:30;;;;;;;1.37;0.50;;;11.70;99.90;;;;;;5065797;28;20563;-70
2023/10/27 09:10:56;;;;;;;2.33;0.73;;;11.70;99.90;;;;;;5049327;28;20286;-70
2023/10/27 09:13:22;;;;;;;2.20;0.70;;;11.60;99.90;;;;;;5067437;28;20196;-71
2023/10/27 09:15:50;;;;;;;2.40;0.70;;;11.60;99.90;;;;;;5065956;28;20645;-71
2023/10/27 09:18:16;;;;;;;1.47;0.70;;;11.80;99.90;;;;;;5067399;28;20479;-70
2023/10/27 09:20:50;;;;;;;1.83;0.87;;;11.80;99.90;;;;;;5049594;28;20420;-70
2023/10/27 09:23:17;;;;;;;2.03;0.77;;;11.80;99.90;;;;;;5066231;28;20928;-71
2023/10/27 09:25:43;;;;;;;0.87;0.50;;;11.80;99.90;;;;;;5065837;28;21067;-71
2023/10/27 09:28:09;;;;;;;5.60;0.90;;;11.80;99.90;;;;;;5066154;28;20463;-71
2023/10/27 09:30:45;;;;;;;2.00;0.70;;;11.80;99.90;;;;;;5066552;28;20435;-71
2023/10/27 09:33:23;;;;;;;1.17;0.70;;;11.80;99.90;;;;;;5067860;28;20516;-71
2023/10/27 09:35:51;;;;;;;2.30;0.77;;;11.80;99.90;;;;;;5067716;28;20861;-71
2023/10/27 09:38:17;;;;;;;3.03;0.77;;;11.80;99.90;;;;;;5067526;28;21218;-71
2023/10/27 09:40:45;;;;;;;4.93;0.80;;;11.70;99.90;;;;;;5067414;28;20508;-70
2023/10/27 09:43:19;;;;;;;4.90;0.80;;;11.70;99.90;;;;;;5067559;28;20422;-70
2023/10/27 09:45:53;;;;;;;2.17;0.77;;;11.70;99.90;;;;;;5065976;28;20512;-70
2023/10/27 09:48:27;;;;;;;2.70;0.90;;;11.70;99.90;;;;;;5067378;28;20520;-71
2023/10/27 09:51:04;;;;;;;2.00;0.87;;;11.60;99.90;;;;;;5066016;28;20483;-70
2023/10/27 09:53:30;;;;;;;2.30;0.70;;;11.60;99.90;;;;;;5067308;28;20411;-71
2023/10/27 09:56:00;;;;;;;2.50;0.90;;;11.70;99.90;;;;;;5067417;28;20456;-71
2023/10/27 09:58:29;;;;;;;1.33;0.77;;;11.80;99.90;;;;;;5065535;28;20541;-71
2023/10/27 10:00:56;;;;;;;3.33;0.60;;;11.90;99.90;;;;;;5065695;28;20427;-71
2023/10/27 10:03:26;;;;;;;7.70;0.87;;;12.10;99.90;;;;;;5066740;28;20420;-71
2023/10/27 10:06:15;;;;;;;3.53;0.90;;;12.30;99.90;;;;;;5065639;28;20429;-71
2023/10/27 10:09:01;;;;;;;2.30;0.70;;;12.40;99.90;;;;;;5066831;28;20489;-70
2023/10/27 10:11:27;;;;;;;2.90;0.77;;;12.50;99.90;;;;;;5066847;28;20927;-71
2023/10/27 10:13:53;;;;;;;3.40;1.20;;;12.70;99.90;;;;;;5065168;28;20429;-71
2023/10/27 10:16:19;;;;;;;3.23;0.80;;;12.80;99.90;;;;;;5065212;28;20427;-71
2023/10/27 10:18:48;;;;;;;3.73;1.07;;;12.90;99.90;;;;;;5064905;28;20217;-71
2023/10/27 10:21:35;;;;;;;1.73;0.70;;;13.50;99.90;;;;;;5066823;28;20452;-71
2023/10/27 10:24:01;;;;;;;6.27;1.43;;;14.30;99.90;;;;;;5066042;28;20449;-72
2023/10/27 10:27:06;;;;;;;2.40;0.70;;;14.50;99.90;;;;;;5066570;28;20491;-71
2023/10/27 10:29:32;;;;;;;3.57;0.80;;;14.50;99.90;;;;;;5065249;28;20230;-71
2023/10/27 10:32:34;;;;;;;3.13;0.70;;;14.70;99.90;;;;;;5065456;28;20424;-70
2023/10/27 10:35:19;;;;;;;11.37;0.87;;;14.50;99.90;;;;;;5066794;28;20428;-70
2023/10/27 10:37:45;;;;;;;3.53;0.90;;;14.50;99.90;;;;;;5068243;28;20476;-70
2023/10/27 10:40:26;;;;;;;11.43;0.90;;;14.20;99.90;;;;;;5070104;28;20421;-70
2023/10/27 10:43:20;;;;;;;1.90;0.80;;;14.10;99.90;;;;;;5070250;28;20591;-71
2023/10/27 10:45:56;;;;;;;2.37;0.83;;;13.80;99.90;;;;;;5070192;28;20467;-71
2023/10/27 10:48:24;;;;;;;3.23;0.70;;;14.10;99.90;;;;;;5070223;28;20601;-71
2023/10/27 10:50:51;;;;;;;3.30;0.80;;;14.70;99.90;;;;;;5070066;28;20416;-71
2023/10/27 10:53:24;;;;;;;1.83;0.60;;;15.00;99.90;;;;;;5070067;28;20413;-71
2023/10/27 10:55:50;;;;;;;7.40;1.40;;;14.90;99.90;;;;;;5068252;28;21058;-70
2023/10/27 10:58:37;;;;;;;8.93;1.97;;;14.60;99.90;;;;;;5069910;28;20464;-71
2023/10/27 11:01:04;;;;;;;3.03;1.03;;;14.40;99.90;;;;;;5068243;28;20764;-71
2023/10/27 11:03:33;;;;;;;7.27;1.33;;;14.20;99.90;;;;;;5070002;28;20421;-71
2023/10/27 11:06:00;;;;;;;3.43;1.20;;;14.10;99.90;;;;;;5068368;28;20761;-70
2023/10/27 11:08:31;;;;;;;2.13;0.80;;;14.00;99.90;;;;;;5069938;28;20482;-70
2023/10/27 11:11:05;;;;;;;2.90;0.90;;;13.90;99.90;;;;;;5068653;28;20434;-71
2023/10/27 11:13:33;;;;;;;1.60;0.70;;;13.80;99.90;;;;;;5068395;28;20422;-71
2023/10/27 11:16:00;;;;;;;1.50;0.60;;;14.00;99.90;;;;;;5068440;28;20464;-71
2023/10/27 11:18:31;;;;;;;2.43;0.80;;;13.90;99.90;;;;;;5069867;28;20472;-70
2023/10/27 11:20:57;;;;;;;1.30;0.70;;;13.90;99.90;;;;;;5070127;28;20449;-70
2023/10/27 11:23:29;;;;;;;3.63;0.80;;;14.00;99.90;;;;;;5070146;28;20441;-69
2023/10/27 11:26:05;;;;;;;3.47;0.77;;;13.80;99.90;;;;;;5068082;28;20421;-70
2023/10/27 11:28:36;;;;;;;2.93;0.77;;;13.90;99.90;;;;;;5068156;28;20444;-71
2023/10/27 11:31:25;;;;;;;4.40;0.90;;;13.90;99.90;;;;;;5069659;28;20424;-68
2023/10/27 11:34:20;;;;;;;4.43;0.90;;;13.80;99.90;;;;;;5068026;28;20421;-70
2023/10/27 11:37:01;;;;;;;1.83;0.70;;;13.80;99.90;;;;;;5069535;28;20543;-70
2023/10/27 11:39:27;;;;;;;2.77;0.80;;;13.80;99.90;;;;;;5068023;28;21057;-71
2023/10/27 11:41:58;;;;;;;2.87;0.70;;;14.00;99.90;;;;;;5067692;28;20432;-70
2023/10/27 11:44:23;;;;;;;6.73;0.83;;;14.20;99.90;;;;;;5069244;28;20424;-71
2023/10/27 11:46:55;;;;;;;8.47;1.27;;;14.10;99.90;;;;;;5067510;28;21204;-71
2023/10/27 11:49:21;;;;;;;5.37;1.23;;;14.40;99.90;;;;;;5068994;28;20398;-71
2023/10/27 11:51:48;;;;;;;5.63;1.40;;;14.60;99.90;;;;;;5067326;28;20418;-70
2023/10/27 11:54:17;;;;;;;5.63;0.93;;;14.90;99.90;;;;;;5067770;28;20508;-70
2023/10/27 11:56:44;;;;;;;1.73;0.70;;;14.70;99.90;;;;;;5068885;28;20426;-70
2023/10/27 11:59:10;;;;;;;5.70;0.97;;;14.60;99.90;;;;;;5067497;28;21343;-71
2023/10/27 12:01:39;;;;;;;2.73;0.83;;;14.70;99.90;;;;;;5068923;28;20440;-70
2023/10/27 12:04:07;;;;;;;3.63;0.60;;;14.70;99.90;;;;;;5068690;28;20427;-70
2023/10/27 12:06:34;;;;;;;3.30;1.10;;;14.80;99.90;;;;;;5068394;28;20417;-70
2023/10/27 12:09:00;;;;;;;2.53;0.70;;;14.40;99.90;;;;;;5066893;28;20452;-70
2023/10/27 12:11:27;;;;;;;3.07;0.70;;;14.50;99.90;;;;;;5066744;28;20483;-70
2023/10/27 12:13:53;;;;;;;5.53;0.93;;;14.40;99.90;;;;;;5066981;28;20461;-70
2023/10/27 12:16:19;;;;;;;3.03;0.87;;;14.30;99.90;;;;;;5068328;28;20457;-72
2023/10/27 12:18:45;;;;;;;1.87;0.50;;;14.20;99.90;;;;;;5068075;28;20246;-71
2023/10/27 12:21:10;;;;;;;1.40;0.40;;;14.30;99.90;;;;;;5066886;28;21275;-71
2023/10/27 12:23:36;;;;;;;2.13;0.70;;;14.40;99.90;;;;;;5068419;28;20735;-71
2023/10/27 12:26:03;;;;;;;6.70;2.00;;;14.50;99.90;;;;;;5066523;28;20806;-70
2023/10/27 12:28:32;;;;;;;3.10;1.10;;;14.60;99.90;;;;;;5066532;28;20207;-70
2023/10/27 12:30:59;;;;;;;3.00;0.70;;;14.60;99.90;;;;;;5067919;28;20436;-70
2023/10/27 12:33:25;;;;;;;1.87;0.70;;;14.50;99.90;;;;;;5068095;28;20414;-70
2023/10/27 12:35:51;;;;;;;1.23;0.90;;;14.50;99.90;;;;;;5068065;28;21189;-70
2023/10/27 12:38:18;;;;;;;5.17;3.73;;;14.60;99.90;;;;;;5067896;28;20465;-70
2023/10/27 12:40:47;;;;;;;6.50;4.90;;;14.50;99.90;;;;;;5067796;28;20979;-69
2023/10/27 12:43:15;;;;;;;1.70;0.73;;;14.40;99.90;;;;;;5067911;28;20421;-69
2023/10/27 12:45:41;;;;;;;3.40;1.03;;;14.30;99.90;;;;;;5068304;28;20799;-70
2023/10/27 12:48:07;;;;;;;4.00;1.00;;;14.20;99.90;;;;;;5067684;28;20437;-71
2023/10/27 12:50:33;;;;;;;0.80;0.60;;;14.10;99.90;;;;;;5067780;28;20440;-71